Time;durP1;ratioP1;P1;durP2;ratioP2;P2;SDS_P1;SDS_P2;PMS_P1;PMS_P2;Temp;Humidity;BMP_temperature;BMP_pressure;BME280_temperature;BME280_humidity;BME280_pressure;Samples;Min_cycle;Max_cycle;Signal;HPM_P1;HPM_P2
2023/08/18 00:02:20;;;;;;;8.23;6.38;;;17.80;99.90;;;;;;4992882;28;20120;-90
2023/08/18 00:04:46;;;;;;;6.68;6.07;;;17.80;99.90;;;;;;4992709;28;20018;-90
2023/08/18 00:07:12;;;;;;;8.05;7.03;;;17.80;99.90;;;;;;4993456;28;20030;-91
2023/08/18 00:09:37;;;;;;;8.60;5.57;;;17.70;99.90;;;;;;4985842;28;20026;-91
2023/08/18 00:12:05;;;;;;;8.18;6.45;;;17.70;99.90;;;;;;4986406;28;20034;-90
2023/08/18 00:14:31;;;;;;;8.07;7.28;;;17.70;99.90;;;;;;4975930;28;20034;-90
2023/08/18 00:16:56;;;;;;;8.48;7.63;;;17.70;99.90;;;;;;4986159;28;20076;-90
2023/08/18 00:19:22;;;;;;;11.13;8.38;;;17.70;99.90;;;;;;4980848;28;20113;-90
2023/08/18 00:21:47;;;;;;;8.45;6.55;;;17.70;99.90;;;;;;4987508;28;20037;-89
2023/08/18 00:24:13;;;;;;;8.95;8.07;;;17.70;99.90;;;;;;5003439;28;20038;-90
2023/08/18 00:26:38;;;;;;;7.47;6.57;;;17.70;99.90;;;;;;4987871;28;20031;-90
2023/08/18 00:29:04;;;;;;;8.45;7.38;;;17.70;99.90;;;;;;4992212;28;20372;-90
2023/08/18 00:31:29;;;;;;;8.68;7.57;;;17.70;99.90;;;;;;4995598;28;20042;-89
2023/08/18 00:33:55;;;;;;;8.73;7.00;;;17.70;99.90;;;;;;4991277;28;20029;-90
2023/08/18 00:36:20;;;;;;;8.57;7.25;;;17.70;99.90;;;;;;4991012;28;20030;-91
2023/08/18 00:38:46;;;;;;;12.35;9.10;;;17.60;99.90;;;;;;4987683;28;20037;-91
2023/08/18 00:41:13;;;;;;;9.65;7.78;;;17.70;99.90;;;;;;4979179;28;20038;-91
2023/08/18 00:43:38;;;;;;;8.80;7.10;;;17.60;99.90;;;;;;4992252;28;20033;-90
2023/08/18 00:46:05;;;;;;;10.68;8.48;;;17.60;99.90;;;;;;4983293;28;20026;-91
2023/08/18 00:48:31;;;;;;;9.98;8.43;;;17.60;99.90;;;;;;4983812;28;20026;-91
2023/08/18 00:50:58;;;;;;;10.90;8.05;;;17.60;99.90;;;;;;4990994;28;20537;-91
2023/08/18 00:53:24;;;;;;;9.77;6.60;;;17.60;99.90;;;;;;4982739;28;20023;-90
2023/08/18 00:55:51;;;;;;;11.82;7.45;;;17.50;99.90;;;;;;4985478;28;20089;-91
2023/08/18 00:58:17;;;;;;;8.75;7.60;;;17.50;99.90;;;;;;4973445;28;20019;-90
2023/08/18 01:00:44;;;;;;;11.48;9.70;;;17.50;99.90;;;;;;4972586;28;20027;-91
2023/08/18 01:03:10;;;;;;;9.15;8.27;;;17.50;99.90;;;;;;4966987;28;20027;-91
2023/08/18 01:05:36;;;;;;;10.48;8.07;;;17.40;99.90;;;;;;4982616;28;20391;-90
2023/08/18 01:08:02;;;;;;;9.20;8.05;;;17.40;99.90;;;;;;4975690;28;20041;-90
2023/08/18 01:10:30;;;;;;;9.45;7.25;;;17.40;99.90;;;;;;4972639;28;20450;-90
2023/08/18 01:12:55;;;;;;;8.93;7.72;;;17.40;99.90;;;;;;4972095;28;20031;-90
2023/08/18 01:15:32;;;;;;;10.65;7.88;;;17.40;99.90;;;;;;4964954;28;20026;-89
2023/08/18 01:18:05;;;;;;;9.73;7.82;;;17.40;99.90;;;;;;4972885;28;20037;-90
2023/08/18 01:20:32;;;;;;;9.10;7.53;;;17.40;99.90;;;;;;4973029;28;20030;-90
2023/08/18 01:23:02;;;;;;;9.02;8.10;;;17.40;99.90;;;;;;4956241;28;20432;-90
2023/08/18 01:25:28;;;;;;;9.40;7.30;;;17.40;99.90;;;;;;4972449;28;20031;-90
2023/08/18 01:27:55;;;;;;;11.02;8.05;;;17.40;99.90;;;;;;4972325;28;20027;-90
2023/08/18 01:30:43;;;;;;;8.88;7.85;;;17.40;99.90;;;;;;4972229;28;20035;-90
2023/08/18 01:33:14;;;;;;;12.15;9.23;;;17.40;99.90;;;;;;4985007;28;20039;-90
2023/08/18 01:35:42;;;;;;;9.32;7.90;;;17.40;99.90;;;;;;4980079;28;20560;-89
2023/08/18 01:38:09;;;;;;;9.10;8.05;;;17.40;99.90;;;;;;4979581;28;20061;-90
2023/08/18 01:40:36;;;;;;;8.88;7.97;;;17.40;99.90;;;;;;4980147;28;20033;-90
2023/08/18 01:43:03;;;;;;;8.40;7.35;;;17.40;99.90;;;;;;4970323;28;20031;-90
2023/08/18 01:45:29;;;;;;;7.65;6.85;;;17.40;99.90;;;;;;4971822;28;20031;-89
2023/08/18 01:47:55;;;;;;;10.27;8.02;;;17.30;99.90;;;;;;4988554;28;20547;-90
2023/08/18 01:50:20;;;;;;;9.98;6.97;;;17.30;99.90;;;;;;4980334;28;20038;-90
2023/08/18 01:52:46;;;;;;;8.75;7.85;;;17.30;99.90;;;;;;4972847;28;20019;-89
2023/08/18 01:55:11;;;;;;;7.70;6.30;;;17.30;99.90;;;;;;4973362;28;20046;-89
2023/08/18 01:57:37;;;;;;;10.43;7.68;;;17.20;99.90;;;;;;4995146;28;20030;-90
2023/08/18 02:00:03;;;;;;;9.35;7.60;;;17.20;99.90;;;;;;4989539;28;20486;-90
2023/08/18 02:02:29;;;;;;;9.52;7.35;;;17.20;99.90;;;;;;4985510;28;20026;-90
2023/08/18 02:04:55;;;;;;;9.10;7.32;;;17.20;99.90;;;;;;4986236;28;20574;-90
2023/08/18 02:07:21;;;;;;;10.18;7.32;;;17.20;99.90;;;;;;4982572;28;20023;-90
2023/08/18 02:09:46;;;;;;;8.13;6.80;;;17.20;99.90;;;;;;4984960;28;20030;-90
2023/08/18 02:12:12;;;;;;;12.43;7.80;;;17.20;99.90;;;;;;4990455;28;20027;-89
2023/08/18 02:14:37;;;;;;;9.93;7.93;;;17.20;99.90;;;;;;4988423;28;20976;-89
2023/08/18 02:17:03;;;;;;;8.93;6.78;;;17.30;99.90;;;;;;4990246;28;20030;-89
2023/08/18 02:19:28;;;;;;;9.35;8.05;;;17.30;99.90;;;;;;4991450;28;20030;-89
2023/08/18 02:21:54;;;;;;;10.50;8.13;;;17.20;99.90;;;;;;4991321;28;20015;-90
2023/08/18 02:24:19;;;;;;;9.45;7.55;;;17.20;99.90;;;;;;4992166;28;20027;-89
2023/08/18 02:26:45;;;;;;;8.63;7.72;;;17.20;99.90;;;;;;4992783;28;20470;-90
2023/08/18 02:29:11;;;;;;;9.30;7.60;;;17.10;99.90;;;;;;4995967;28;20113;-90
2023/08/18 02:31:36;;;;;;;8.05;6.82;;;17.10;99.90;;;;;;4981617;28;20483;-90
2023/08/18 02:34:02;;;;;;;8.82;7.63;;;17.10;99.90;;;;;;4989665;28;20042;-90
2023/08/18 02:36:28;;;;;;;10.07;8.57;;;17.10;99.90;;;;;;4979383;28;20507;-90
2023/08/18 02:38:53;;;;;;;11.40;7.63;;;17.10;99.90;;;;;;4991188;28;20036;-90
2023/08/18 02:41:19;;;;;;;8.93;7.35;;;17.10;99.90;;;;;;4993421;28;20446;-90
2023/08/18 02:43:48;;;;;;;9.48;7.90;;;17.10;99.90;;;;;;4992308;28;20037;-90
2023/08/18 02:46:14;;;;;;;11.13;8.13;;;17.10;99.90;;;;;;4983917;28;20041;-90
2023/08/18 02:48:39;;;;;;;9.65;8.30;;;17.10;99.90;;;;;;4994597;28;20048;-89
2023/08/18 02:51:09;;;;;;;8.52;7.35;;;17.10;99.90;;;;;;4994307;28;20493;-90
2023/08/18 02:53:39;;;;;;;9.65;8.10;;;17.10;99.90;;;;;;4995321;28;20033;-90
2023/08/18 02:56:05;;;;;;;11.10;8.93;;;17.10;99.90;;;;;;4984088;28;20082;-89
2023/08/18 02:58:31;;;;;;;12.30;9.48;;;17.10;99.90;;;;;;4975434;28;20058;-91
2023/08/18 03:01:07;;;;;;;9.50;8.10;;;17.10;99.90;;;;;;4975402;28;20497;-90
2023/08/18 03:03:33;;;;;;;8.27;7.10;;;17.10;99.90;;;;;;4974857;28;20106;-91
2023/08/18 03:06:00;;;;;;;9.52;7.75;;;17.10;99.90;;;;;;4974036;28;20054;-90
2023/08/18 03:08:26;;;;;;;10.57;7.72;;;17.00;99.90;;;;;;4975327;28;20023;-90
2023/08/18 03:11:00;;;;;;;8.27;7.32;;;17.00;99.90;;;;;;4975065;28;20407;-90
2023/08/18 03:13:26;;;;;;;8.52;7.57;;;17.00;99.90;;;;;;4975023;28;20035;-90
2023/08/18 03:15:52;;;;;;;8.95;7.72;;;16.90;99.90;;;;;;4974366;28;20034;-90
2023/08/18 03:18:18;;;;;;;11.63;8.27;;;17.00;99.90;;;;;;4988365;28;20165;-90
2023/08/18 03:20:48;;;;;;;8.55;7.50;;;17.00;99.90;;;;;;4972157;28;20026;-90
2023/08/18 03:23:15;;;;;;;8.48;7.45;;;17.00;99.90;;;;;;4990802;28;20484;-89
2023/08/18 03:25:41;;;;;;;9.82;7.95;;;17.00;99.90;;;;;;4974265;28;20036;-89
2023/08/18 03:28:07;;;;;;;8.38;7.28;;;17.00;99.90;;;;;;4975529;28;20023;-90
2023/08/18 03:30:36;;;;;;;12.25;9.05;;;17.00;99.90;;;;;;4983185;28;20043;-90
2023/08/18 03:33:03;;;;;;;8.70;7.55;;;17.00;99.90;;;;;;4983218;28;20033;-91
2023/08/18 03:35:31;;;;;;;9.77;8.68;;;17.00;99.90;;;;;;4974466;28;20062;-89
2023/08/18 03:37:58;;;;;;;11.88;8.90;;;17.00;99.90;;;;;;4973280;28;20027;-90
2023/08/18 03:40:24;;;;;;;9.48;7.50;;;17.00;99.90;;;;;;4978825;28;20039;-89
2023/08/18 03:42:49;;;;;;;10.75;8.13;;;17.00;99.90;;;;;;4974313;28;20069;-89
2023/08/18 03:45:15;;;;;;;9.70;7.32;;;17.00;99.90;;;;;;4974991;28;20058;-89
2023/08/18 03:47:41;;;;;;;12.10;8.63;;;17.00;99.90;;;;;;4974108;28;20059;-89
2023/08/18 03:50:07;;;;;;;12.80;9.27;;;16.90;99.90;;;;;;4988090;28;20068;-89
2023/08/18 03:52:32;;;;;;;13.68;10.43;;;16.90;99.90;;;;;;4976981;28;20034;-89
2023/08/18 03:54:58;;;;;;;12.23;9.68;;;16.90;99.90;;;;;;4990596;28;20501;-88
2023/08/18 03:57:23;;;;;;;11.45;9.10;;;16.90;99.90;;;;;;4988484;28;20033;-90
2023/08/18 03:59:49;;;;;;;11.63;9.32;;;17.00;99.90;;;;;;5002510;28;20034;-89
2023/08/18 04:02:14;;;;;;;14.20;9.48;;;16.90;99.90;;;;;;4988307;28;20030;-90
2023/08/18 04:04:40;;;;;;;12.68;9.35;;;16.90;99.90;;;;;;4993103;28;20038;-89
2023/08/18 04:07:06;;;;;;;12.32;9.88;;;17.00;99.90;;;;;;4991444;28;20019;-90
2023/08/18 04:09:31;;;;;;;12.60;9.90;;;16.90;99.90;;;;;;4992697;28;20114;-89
2023/08/18 04:11:56;;;;;;;10.65;8.63;;;16.90;99.90;;;;;;4991181;28;20044;-90
2023/08/18 04:14:22;;;;;;;14.88;11.38;;;16.90;99.90;;;;;;4979909;28;20032;-91
2023/08/18 04:16:48;;;;;;;14.50;10.82;;;16.90;99.90;;;;;;4993043;28;20109;-90
2023/08/18 04:19:13;;;;;;;12.48;10.30;;;16.90;99.90;;;;;;4993545;28;20057;-90
2023/08/18 04:21:39;;;;;;;11.75;10.25;;;16.90;99.90;;;;;;4989487;28;20023;-88
2023/08/18 04:24:05;;;;;;;15.80;11.65;;;16.90;99.90;;;;;;4984201;28;20027;-88
2023/08/18 04:26:30;;;;;;;14.27;10.93;;;16.90;99.90;;;;;;4983497;28;20057;-91
2023/08/18 04:28:56;;;;;;;19.80;11.10;;;16.90;99.90;;;;;;5009352;28;20129;-90
2023/08/18 04:31:22;;;;;;;15.90;11.60;;;16.90;99.90;;;;;;4992669;28;20038;-90
2023/08/18 04:33:47;;;;;;;15.40;12.10;;;16.90;99.90;;;;;;4991551;28;20507;-90
2023/08/18 04:36:13;;;;;;;17.13;12.18;;;16.90;99.90;;;;;;4984957;28;20129;-90
2023/08/18 04:38:38;;;;;;;14.05;10.45;;;16.90;99.90;;;;;;4992785;28;20022;-90
2023/08/18 04:41:04;;;;;;;14.75;11.80;;;17.00;99.90;;;;;;4984195;28;20035;-90
2023/08/18 04:43:31;;;;;;;17.25;12.43;;;16.90;99.90;;;;;;4991187;28;20041;-91
2023/08/18 04:45:57;;;;;;;16.55;11.77;;;16.90;99.90;;;;;;4992194;28;20030;-90
2023/08/18 04:48:23;;;;;;;20.85;13.32;;;17.00;99.90;;;;;;4992046;28;20018;-90
2023/08/18 04:50:49;;;;;;;17.27;11.70;;;16.90;99.90;;;;;;4989105;28;20125;-89
2023/08/18 04:53:15;;;;;;;17.88;13.63;;;16.90;99.90;;;;;;4980729;28;20078;-91
2023/08/18 04:55:42;;;;;;;16.30;12.75;;;16.80;99.90;;;;;;4998678;28;20061;-89
2023/08/18 04:58:15;;;;;;;20.95;13.20;;;16.90;99.90;;;;;;4999395;28;20033;-89
2023/08/18 05:00:44;;;;;;;20.95;13.52;;;16.90;99.90;;;;;;4986131;28;20065;-89
2023/08/18 05:03:10;;;;;;;22.38;14.75;;;16.90;99.90;;;;;;5005237;28;20023;-90
2023/08/18 05:05:45;;;;;;;23.10;16.40;;;16.90;99.90;;;;;;4987575;28;20030;-90
2023/08/18 05:08:10;;;;;;;22.75;16.40;;;16.90;99.90;;;;;;4992964;28;20124;-90
2023/08/18 05:10:36;;;;;;;21.35;15.15;;;16.90;99.90;;;;;;4992994;28;20121;-91
2023/08/18 05:13:01;;;;;;;25.40;14.02;;;16.90;99.90;;;;;;4992406;28;20164;-90
2023/08/18 05:15:27;;;;;;;22.00;16.05;;;16.90;99.90;;;;;;4992102;28;20029;-90
2023/08/18 05:17:53;;;;;;;24.00;16.15;;;16.90;99.90;;;;;;4991998;28;20116;-91
2023/08/18 05:20:18;;;;;;;23.10;17.02;;;17.00;99.90;;;;;;4989683;28;20022;-90
2023/08/18 05:22:44;;;;;;;24.20;17.30;;;17.00;99.90;;;;;;5005723;28;20037;-90
2023/08/18 05:25:10;;;;;;;24.88;17.45;;;16.90;99.90;;;;;;4988320;28;20118;-91
2023/08/18 05:27:37;;;;;;;25.63;17.77;;;17.00;99.90;;;;;;4991694;28;20054;-91
2023/08/18 05:30:04;;;;;;;22.23;16.63;;;17.00;99.90;;;;;;5012738;28;20030;-90
2023/08/18 05:32:30;;;;;;;27.02;18.05;;;17.00;99.90;;;;;;4990944;28;20139;-88
2023/08/18 05:34:56;;;;;;;26.58;19.00;;;17.00;99.90;;;;;;4992043;28;20451;-90
2023/08/18 05:37:23;;;;;;;23.02;17.08;;;17.00;99.90;;;;;;4985172;28;20034;-91
2023/08/18 05:39:48;;;;;;;28.60;18.83;;;17.10;99.90;;;;;;4989164;28;20117;-91
2023/08/18 05:42:15;;;;;;;21.85;16.48;;;17.10;99.90;;;;;;4989041;28;20567;-90
2023/08/18 05:44:42;;;;;;;28.40;20.02;;;17.10;99.90;;;;;;4986375;28;20030;-91
2023/08/18 05:47:07;;;;;;;28.00;18.55;;;17.10;99.90;;;;;;4992678;28;20065;-90
2023/08/18 05:49:33;;;;;;;21.88;16.98;;;17.20;99.90;;;;;;4983731;28;20530;-90
2023/08/18 05:51:58;;;;;;;21.60;15.48;;;17.20;99.90;;;;;;4992182;28;20491;-90
2023/08/18 05:54:24;;;;;;;24.67;18.63;;;17.20;99.90;;;;;;4991611;28;20034;-90
2023/08/18 05:56:50;;;;;;;29.33;19.25;;;17.20;99.90;;;;;;4984084;28;20109;-92
2023/08/18 05:59:15;;;;;;;24.95;18.17;;;17.30;99.90;;;;;;4991901;28;20467;-91
2023/08/18 06:01:41;;;;;;;26.13;18.65;;;17.30;99.90;;;;;;4990150;28;20034;-91
2023/08/18 06:04:07;;;;;;;25.25;19.05;;;17.30;99.90;;;;;;4987468;28;20023;-89
2023/08/18 06:06:34;;;;;;;26.45;18.23;;;17.30;99.90;;;;;;4995442;28;20034;-90
2023/08/18 06:09:01;;;;;;;30.85;19.63;;;17.30;99.90;;;;;;4989100;28;20034;-90
2023/08/18 06:11:27;;;;;;;25.92;17.63;;;17.40;99.90;;;;;;4989955;28;20037;-90
2023/08/18 06:13:52;;;;;;;27.42;19.67;;;17.40;99.90;;;;;;4995692;28;20033;-91
2023/08/18 06:16:18;;;;;;;28.30;19.60;;;17.40;99.90;;;;;;4992243;28;20541;-88
2023/08/18 06:18:43;;;;;;;30.85;20.90;;;17.50;99.90;;;;;;4995598;28;20019;-90
2023/08/18 06:21:09;;;;;;;27.00;19.77;;;17.50;99.90;;;;;;4991508;28;20046;-91
2023/08/18 06:23:35;;;;;;;34.70;24.65;;;17.50;99.90;;;;;;4993380;28;20109;-91
2023/08/18 06:26:01;;;;;;;34.53;22.67;;;17.60;99.90;;;;;;4988685;28;20031;-91
2023/08/18 06:28:26;;;;;;;34.08;23.65;;;17.50;99.90;;;;;;4990723;28;20034;-90
2023/08/18 06:30:52;;;;;;;32.05;21.75;;;17.60;99.90;;;;;;4996213;28;20033;-89
2023/08/18 06:33:17;;;;;;;36.95;22.38;;;17.70;99.90;;;;;;4990103;28;20133;-90
2023/08/18 06:35:43;;;;;;;30.70;22.35;;;17.70;99.90;;;;;;4987218;28;20463;-90
2023/08/18 06:38:08;;;;;;;28.67;21.17;;;17.80;99.90;;;;;;4982116;28;20073;-90
2023/08/18 06:40:34;;;;;;;31.60;22.85;;;17.90;99.90;;;;;;5011757;28;20027;-90
2023/08/18 06:42:59;;;;;;;33.25;22.92;;;18.00;99.90;;;;;;4984442;28;20092;-90
2023/08/18 06:45:25;;;;;;;31.60;23.60;;;18.00;99.90;;;;;;4991965;28;20494;-87
2023/08/18 06:47:50;;;;;;;27.02;20.00;;;18.00;99.90;;;;;;5004230;28;20027;-90
2023/08/18 06:50:17;;;;;;;37.85;25.77;;;18.00;99.90;;;;;;4997060;28;20031;-90
2023/08/18 06:52:43;;;;;;;36.28;24.92;;;18.00;99.90;;;;;;5004083;28;20027;-89
2023/08/18 06:55:13;;;;;;;34.00;24.42;;;18.00;99.90;;;;;;4993510;28;20045;-90
2023/08/18 06:57:39;;;;;;;29.90;23.08;;;18.00;99.90;;;;;;4982602;28;20125;-90
2023/08/18 07:00:06;;;;;;;33.53;23.00;;;18.10;99.90;;;;;;4989584;28;20134;-89
2023/08/18 07:02:31;;;;;;;28.90;20.67;;;18.20;99.90;;;;;;4991121;28;20385;-91
2023/08/18 07:04:57;;;;;;;39.15;26.27;;;18.30;99.90;;;;;;4990910;28;20088;-90
2023/08/18 07:07:23;;;;;;;34.28;24.15;;;18.30;99.90;;;;;;4980268;28;20026;-90
2023/08/18 07:09:49;;;;;;;37.45;27.13;;;18.40;99.90;;;;;;4993764;28;20030;-89
2023/08/18 07:12:15;;;;;;;38.83;27.00;;;18.50;99.90;;;;;;4993647;28;20076;-90
2023/08/18 07:14:41;;;;;;;38.22;24.85;;;18.50;99.90;;;;;;4992398;28;20038;-91
2023/08/18 07:17:06;;;;;;;34.17;24.50;;;18.50;99.90;;;;;;4992246;28;20026;-91
2023/08/18 07:19:32;;;;;;;35.67;25.52;;;18.50;99.90;;;;;;4993976;28;20029;-90
2023/08/18 07:21:58;;;;;;;30.98;22.27;;;18.60;99.90;;;;;;4993886;28;20093;-91
2023/08/18 07:24:23;;;;;;;39.67;25.30;;;18.60;99.90;;;;;;4987809;28;20037;-90
2023/08/18 07:26:49;;;;;;;35.88;24.10;;;18.80;99.90;;;;;;4985174;28;20041;-90
2023/08/18 07:29:14;;;;;;;37.17;27.70;;;18.80;99.90;;;;;;4993315;28;20027;-90
2023/08/18 07:31:42;;;;;;;38.05;24.58;;;18.80;99.90;;;;;;4991450;28;20172;-90
2023/08/18 07:34:07;;;;;;;38.80;25.48;;;18.80;99.90;;;;;;4986100;28;20026;-91
2023/08/18 07:36:33;;;;;;;35.00;24.60;;;18.90;99.90;;;;;;4991619;28;20034;-90
2023/08/18 07:38:59;;;;;;;39.90;28.85;;;19.00;99.90;;;;;;4986570;28;20022;-91
2023/08/18 07:41:24;;;;;;;35.15;24.27;;;19.00;99.90;;;;;;5001830;28;20026;-91
2023/08/18 07:43:50;;;;;;;34.13;23.80;;;19.10;99.90;;;;;;4994150;28;20037;-92
2023/08/18 07:46:16;;;;;;;33.67;24.35;;;19.20;99.90;;;;;;4988996;28;20034;-92
2023/08/18 07:48:43;;;;;;;32.22;23.30;;;19.20;99.90;;;;;;4989707;28;20072;-93
2023/08/18 07:51:08;;;;;;;36.75;24.83;;;19.30;99.90;;;;;;4991030;28;20062;-91
2023/08/18 07:53:34;;;;;;;36.50;23.45;;;19.30;99.90;;;;;;4991224;28;20507;-91
2023/08/18 07:55:59;;;;;;;36.00;24.83;;;19.30;99.90;;;;;;5010530;28;20092;-91
2023/08/18 07:58:25;;;;;;;28.35;21.33;;;19.40;99.90;;;;;;4999371;28;20022;-92
2023/08/18 08:00:51;;;;;;;37.63;25.05;;;19.40;99.90;;;;;;5012414;28;20092;-91
2023/08/18 08:03:17;;;;;;;35.78;23.92;;;19.40;99.90;;;;;;4993219;28;20026;-91
2023/08/18 08:05:42;;;;;;;33.85;24.23;;;19.40;99.90;;;;;;4983205;28;20122;-92
2023/08/18 08:08:08;;;;;;;41.92;27.45;;;19.40;99.90;;;;;;4979726;28;20553;-91
2023/08/18 08:10:33;;;;;;;36.20;24.48;;;19.50;99.90;;;;;;4987373;28;20043;-90
2023/08/18 08:12:59;;;;;;;34.17;23.13;;;19.50;99.90;;;;;;4992725;28;20030;-91
2023/08/18 08:15:25;;;;;;;38.25;25.27;;;19.50;99.90;;;;;;4993793;28;20054;-90
2023/08/18 08:17:51;;;;;;;36.80;26.67;;;19.50;99.90;;;;;;4991247;28;20030;-91
2023/08/18 08:20:17;;;;;;;32.95;22.83;;;19.50;99.90;;;;;;4993370;28;20033;-90
2023/08/18 08:22:45;;;;;;;30.40;21.05;;;19.70;99.90;;;;;;4993392;28;20018;-90
2023/08/18 08:25:11;;;;;;;34.38;23.42;;;19.70;99.90;;;;;;4992448;28;20900;-91
2023/08/18 08:27:37;;;;;;;26.70;20.20;;;19.80;99.90;;;;;;4988828;28;20081;-90
2023/08/18 08:30:04;;;;;;;33.28;24.23;;;19.80;99.90;;;;;;4998673;28;20129;-90
2023/08/18 08:32:30;;;;;;;35.03;21.83;;;19.80;99.90;;;;;;4991514;28;20031;-91
2023/08/18 08:34:55;;;;;;;26.38;19.63;;;19.80;99.90;;;;;;4992518;28;20168;-91
2023/08/18 08:37:21;;;;;;;28.95;20.05;;;19.80;99.90;;;;;;4990268;28;20028;-91
2023/08/18 08:39:47;;;;;;;28.15;20.65;;;19.90;99.90;;;;;;4991195;28;20036;-91
2023/08/18 08:42:12;;;;;;;30.13;21.55;;;19.90;99.90;;;;;;4984308;28;20723;-91
2023/08/18 08:44:39;;;;;;;28.67;19.27;;;20.00;99.90;;;;;;4988813;28;20030;-91
2023/08/18 08:47:06;;;;;;;22.92;17.08;;;20.10;99.90;;;;;;4992533;28;20022;-91
2023/08/18 08:49:32;;;;;;;30.08;19.45;;;20.20;99.90;;;;;;4991654;28;20121;-91
2023/08/18 08:52:02;;;;;;;22.63;17.55;;;20.10;99.90;;;;;;4992434;28;20049;-91
2023/08/18 08:54:30;;;;;;;25.75;18.10;;;20.20;99.90;;;;;;4987182;28;20042;-91
2023/08/18 08:56:56;;;;;;;29.23;21.23;;;20.10;99.90;;;;;;4985239;28;20034;-91
2023/08/18 08:59:22;;;;;;;29.35;19.55;;;20.10;99.90;;;;;;4992195;28;20057;-91
2023/08/18 09:01:48;;;;;;;25.08;18.80;;;20.00;99.90;;;;;;4987456;28;20026;-90
2023/08/18 09:04:15;;;;;;;26.20;19.05;;;20.10;99.90;;;;;;4992507;28;20104;-88
2023/08/18 09:06:41;;;;;;;21.35;16.60;;;20.20;99.90;;;;;;4991263;28;20128;-88
2023/08/18 09:09:07;;;;;;;23.05;15.48;;;20.30;99.90;;;;;;4981073;28;20113;-88
2023/08/18 09:11:42;;;;;;;24.00;16.23;;;20.40;99.90;;;;;;4989461;28;20398;-89
2023/08/18 09:14:08;;;;;;;19.98;14.95;;;20.50;99.90;;;;;;5009051;28;20035;-88
2023/08/18 09:16:34;;;;;;;20.70;16.08;;;20.50;99.90;;;;;;4992189;28;20027;-88
2023/08/18 09:19:01;;;;;;;25.73;17.30;;;20.60;99.90;;;;;;4987831;28;20050;-89
2023/08/18 09:21:26;;;;;;;19.95;15.52;;;20.70;99.90;;;;;;4991094;28;20026;-89
2023/08/18 09:23:56;;;;;;;22.85;14.45;;;20.70;99.90;;;;;;4992508;28;20088;-89
2023/08/18 09:26:22;;;;;;;18.58;13.77;;;20.80;99.90;;;;;;4992228;28;20038;-92
2023/08/18 09:28:47;;;;;;;21.33;14.93;;;20.80;99.90;;;;;;4984794;28;20027;-88
2023/08/18 09:31:13;;;;;;;20.65;16.15;;;20.90;99.90;;;;;;4989763;28;20069;-91
2023/08/18 09:33:39;;;;;;;18.73;15.02;;;20.90;99.90;;;;;;4992165;28;20033;-91
2023/08/18 09:36:04;;;;;;;20.60;14.65;;;20.90;99.90;;;;;;4991601;28;20038;-92
2023/08/18 09:38:43;;;;;;;16.35;13.55;;;20.90;99.90;;;;;;4989072;28;20017;-91
2023/08/18 09:41:09;;;;;;;18.75;14.55;;;20.90;99.90;;;;;;4992071;28;20042;-91
2023/08/18 09:43:38;;;;;;;16.52;12.95;;;21.00;99.90;;;;;;4988537;28;20038;-91
2023/08/18 09:46:05;;;;;;;15.90;12.50;;;21.10;99.90;;;;;;4991826;28;20026;-91
2023/08/18 09:48:39;;;;;;;18.70;14.10;;;21.30;99.90;;;;;;4990489;28;20034;-91
2023/08/18 09:51:07;;;;;;;20.75;14.48;;;21.30;99.90;;;;;;4992318;28;20046;-92
2023/08/18 09:53:33;;;;;;;18.50;13.68;;;21.40;99.90;;;;;;4982025;28;20023;-91
2023/08/18 09:56:13;;;;;;;17.80;14.57;;;21.60;99.90;;;;;;4986551;28;20053;-91
2023/08/18 09:58:55;;;;;;;16.02;12.40;;;21.70;99.90;;;;;;4988966;28;20026;-91
2023/08/18 10:01:22;;;;;;;15.95;12.55;;;22.00;99.90;;;;;;4974979;28;20081;-90
2023/08/18 10:03:49;;;;;;;17.35;13.70;;;22.10;99.90;;;;;;4978542;28;20073;-91
2023/08/18 10:06:17;;;;;;;17.77;14.02;;;22.20;99.90;;;;;;4987151;28;20034;-91
2023/08/18 10:08:43;;;;;;;19.38;13.68;;;22.20;99.90;;;;;;4988063;28;20057;-91
2023/08/18 10:11:09;;;;;;;19.23;12.73;;;22.20;99.90;;;;;;4992161;28;20038;-91
2023/08/18 10:13:37;;;;;;;17.98;14.45;;;22.20;99.90;;;;;;4992023;28;20372;-92
2023/08/18 10:16:05;;;;;;;16.95;12.65;;;22.10;99.90;;;;;;4973554;28;20459;-91
2023/08/18 10:18:31;;;;;;;15.90;12.40;;;22.20;99.90;;;;;;4986245;28;20026;-91
2023/08/18 10:20:58;;;;;;;19.25;13.60;;;22.40;99.90;;;;;;4991469;28;20034;-92
2023/08/18 10:23:25;;;;;;;16.67;13.25;;;22.60;99.90;;;;;;4990257;28;20380;-91
2023/08/18 10:25:52;;;;;;;14.93;12.35;;;22.60;99.90;;;;;;4975461;28;20050;-91
2023/08/18 10:28:19;;;;;;;16.42;12.27;;;22.70;99.90;;;;;;4997235;28;20019;-92
2023/08/18 10:31:03;;;;;;;18.88;12.35;;;22.90;99.90;;;;;;4979888;28;20038;-92
2023/08/18 10:33:52;;;;;;;17.77;13.35;;;22.90;99.90;;;;;;4992345;28;20026;-92
2023/08/18 10:36:26;;;;;;;14.82;11.68;;;23.00;99.90;;;;;;4984024;28;20100;-92
2023/08/18 10:38:54;;;;;;;18.17;14.82;;;23.00;99.90;;;;;;4988055;28;20030;-91
2023/08/18 10:41:29;;;;;;;14.27;12.18;;;23.00;99.90;;;;;;4978200;28;20050;-91
2023/08/18 10:43:57;;;;;;;15.68;13.20;;;23.10;99.90;;;;;;4986844;28;20031;-92
2023/08/18 10:46:36;;;;;;;14.55;11.70;;;23.10;99.90;;;;;;4986958;28;20483;-92
2023/08/18 10:49:02;;;;;;;15.63;12.70;;;23.20;99.90;;;;;;4988808;28;20069;-93
2023/08/18 10:51:28;;;;;;;17.67;13.75;;;23.00;99.90;;;;;;4992537;28;20073;-92
2023/08/18 10:53:54;;;;;;;14.48;12.13;;;23.10;99.90;;;;;;4996241;28;20046;-93
2023/08/18 10:56:20;;;;;;;16.15;12.93;;;23.10;99.90;;;;;;5008037;28;20076;-92
2023/08/18 10:58:45;;;;;;;14.85;12.75;;;23.30;99.90;;;;;;4997530;28;20110;-91
2023/08/18 11:01:11;;;;;;;13.68;11.77;;;23.50;99.90;;;;;;5012431;28;20073;-91
2023/08/18 11:03:39;;;;;;;14.20;12.02;;;23.60;99.90;;;;;;4999070;28;20018;-91
2023/08/18 11:06:05;;;;;;;16.23;12.45;;;23.70;99.90;;;;;;4998211;28;20069;-92
2023/08/18 11:08:30;;;;;;;17.35;13.05;;;23.60;99.90;;;;;;4998520;28;20030;-92
2023/08/18 11:10:56;;;;;;;15.07;12.65;;;23.80;99.90;;;;;;4997768;28;20038;-92
2023/08/18 11:13:24;;;;;;;14.95;12.88;;;23.90;99.90;;;;;;5001596;28;20025;-91
2023/08/18 11:15:51;;;;;;;15.82;13.40;;;23.80;99.90;;;;;;4995491;28;20033;-92
2023/08/18 11:18:16;;;;;;;14.93;12.07;;;23.70;99.90;;;;;;4999196;28;20026;-91
2023/08/18 11:20:43;;;;;;;12.52;10.90;;;23.60;99.90;;;;;;4999592;28;20702;-89
2023/08/18 11:23:09;;;;;;;17.73;13.57;;;23.50;99.90;;;;;;5007671;28;20116;-90
2023/08/18 11:25:36;;;;;;;15.25;13.02;;;23.50;99.90;;;;;;4990819;28;20068;-92
2023/08/18 11:28:02;;;;;;;16.27;12.20;;;23.60;99.90;;;;;;4993465;28;20116;-90
2023/08/18 11:30:28;;;;;;;15.10;13.48;;;23.60;99.90;;;;;;4991320;28;20045;-91
2023/08/18 11:32:54;;;;;;;17.40;13.60;;;23.60;99.90;;;;;;4984835;28;20022;-90
2023/08/18 11:35:20;;;;;;;15.50;12.80;;;23.70;99.90;;;;;;4993368;28;20034;-92
2023/08/18 11:37:47;;;;;;;15.57;13.00;;;23.70;99.90;;;;;;5008290;28;20386;-91
2023/08/18 11:40:17;;;;;;;13.80;12.20;;;23.80;99.90;;;;;;4989112;28;20034;-90
2023/08/18 11:42:45;;;;;;;14.70;12.32;;;23.90;99.90;;;;;;4984113;28;20027;-91
2023/08/18 11:45:15;;;;;;;11.60;10.50;;;24.00;99.90;;;;;;4999115;28;20029;-90
2023/08/18 11:47:44;;;;;;;11.32;9.52;;;24.00;99.90;;;;;;4989487;28;20030;-91
2023/08/18 11:50:12;;;;;;;10.55;9.45;;;24.00;99.90;;;;;;5010657;28;20036;-90
2023/08/18 11:52:45;;;;;;;10.90;9.80;;;24.10;99.90;;;;;;5012646;28;20033;-91
2023/08/18 11:55:12;;;;;;;9.63;8.63;;;24.10;99.90;;;;;;4996886;28;20049;-91
2023/08/18 11:57:45;;;;;;;9.55;7.93;;;24.10;99.90;;;;;;4991501;28;20034;-91
2023/08/18 12:00:13;;;;;;;11.18;9.30;;;24.20;99.90;;;;;;4981160;28;20022;-92
2023/08/18 12:02:46;;;;;;;9.50;8.50;;;24.30;99.90;;;;;;4996767;28;20057;-91
2023/08/18 12:05:23;;;;;;;10.30;8.80;;;24.40;99.90;;;;;;4992773;28;20026;-91
2023/08/18 12:07:53;;;;;;;9.65;8.60;;;24.40;99.90;;;;;;4990506;28;20033;-90
2023/08/18 12:10:20;;;;;;;9.30;8.40;;;24.40;99.90;;;;;;4996572;28;20034;-90
2023/08/18 12:12:51;;;;;;;10.73;8.75;;;24.40;99.90;;;;;;4995538;28;20113;-91
2023/08/18 12:15:17;;;;;;;10.50;9.40;;;24.60;99.90;;;;;;4988042;28;20025;-92
2023/08/18 12:17:42;;;;;;;10.65;9.55;;;24.80;99.90;;;;;;4997641;28;20117;-91
2023/08/18 12:20:08;;;;;;;8.20;7.40;;;25.00;99.90;;;;;;4999700;28;20082;-92
2023/08/18 12:22:34;;;;;;;9.40;8.50;;;25.10;99.90;;;;;;4995582;28;20030;-90
2023/08/18 12:24:59;;;;;;;11.88;9.65;;;25.20;99.90;;;;;;4989823;28;20034;-93
2023/08/18 12:27:29;;;;;;;9.50;8.60;;;25.40;99.90;;;;;;4996296;28;20028;-92
2023/08/18 12:29:55;;;;;;;11.95;10.20;;;25.50;99.90;;;;;;4995853;28;20033;-91
2023/08/18 12:32:20;;;;;;;11.52;10.25;;;25.40;99.90;;;;;;4996830;28;20461;-92